Portada
METAR-TAF:

METAR-TAF

Aeropuertos :

Dhahran, Arabia Saudita

latitud: 26-16N, longitud: 050-09E, altitud: 26 m

Observación

El informe se hizo hace 23 minutos, a las 03:00 UTC
Viento 4 kt del oeste
Temperatura 27°C
Humedad 66%
Presión 1004 hPa
Visibilidad: 5000 m
calima

METAR: OEDR 270300Z 27004KT 5000 HZ NSC 27/20 Q1004 NOSIG

Hora: 06:23 (03:23 UTC)

Pronóstico

El informe se hizo hace 7 horas y 9 minutos, a las 20:14 UTC
Pronóstico válido del 27 a las 00 UTC al 28 a las 06 UTC
Viento 5 kt con dirección variable
Visibilidad 10 km o más
sin nubes por debajo de 1500 m y sin presencia de cumulonimbus.
Probabilidad 30% :
Temporalmente
del 27 a las 00 UTC al 27 a las 04 UTC
Visibilidad: 4000 m
calima
Evolucionando progresivamente
del 27 a las 07 UTC al 27 a las 09 UTC
Viento 13 kt del noreste

TAF: OEDR 262014Z 2700/2806 VRB05KT CAVOK PROB30 TEMPO 2700/2704 4000 HZ BECMG 2707/2709 05013KT

Observaciones y pronósticos meteorológicos de más de 4000 aeropuertos (mensajes METAR y TAF).

Los puntos amarillos y rojos representan las estaciones disponibles.

Ponga el ratón en el punto deseado para ver el nombre de la estación.

Haga clic para ver las observaciones y los pronósticos meteorológicos.

Para cambiar el mapa : haga clic en los botones verdes con una cruz de color negro para hacer un zoom, en el botón verde con un guión para alejar o en las flechas verdes para mapas adyacentes.


METAR-TAF: